Mooresville, Texas
Current Conditions -  °F | °C
As of 4:15 PM on Friday 24 Oct 2014 (Local Time) from KPWG Reporting Station
Few Clouds Few Clouds  
Wind Chill: 84°   Ceiling: Unl
Heat Index: 84°   Visibility: 10mi
Dew Point: 57°   Wind: 9mph
Humidity: 40%   Direction: 170°S
Pressure: 30.1"   Gusts: NA
Location:  31.2985°N, 97.112°W
Report Text: KPWG 242115Z AUTO 17008KT 10SM FEW055 29/14 A3010 RMK AO1
Loading
Personal Weather Stations






























Interactive Weather Map
Tropical Storm Tracking
New forecast layout! Learn more

10-Day Weather Forecast

Advertisements
Track Severe Weather on mobile